Ormsby, MN

06:45 AM CDT del 28 Maggio 2015 (GMT -0500)
Saint James Municipal | | Change Station
CLOSE
Current Station
Aeroporto
Location: St. James,
Altitudine: 1066 ft
Stazioni meteo nelle vicinanze

Alt. 1066 ft 43.99 °N, 94.56 °W | Updated 10 minutes ago

Sereno
Sereno
61 °F
Sembra 61 °F
N
8
Vento Variabile Vento da SSE

Oggi
Massima -- | Minima -- °F
--% Possibilità di precip.
Ieri
Massima -- | Minima -- °F
Precip. -- in
5:41 AM 8:50 PM
Gobba a ponente, 75% visible
Pressione 30.07 in
Visibilità 10.0 miglia
Nuvole Sereno
Punto di rugiada 55 °F
Umidità 82%
Piovosità 0.00 in
Spessore del manto nevoso Non disponibile.
Raggi UV 0 fuori da 12
Polline 7.00 fuori da 12
Qualità dell'aria Non disponibile.
Flu Activity Sporadic
METAR KJYG 281135Z AUTO 15007KT 10SM CLR 16/13 A3007 RMK AO2

More Conditions Fewer Conditions

Pressione 30.07 in
Visibilità 10.0 miglia
Nuvole Sereno
Punto di rugiada 55 °F
Umidità 82%
Piovosità 0.00 in
Spessore del manto nevoso Non disponibile.
Raggi UV 0 fuori da 12
Polline 7.00 fuori da 12
Qualità dell'aria Non disponibile.
Flu Activity Sporadic
METAR KJYG 281135Z AUTO 15007KT 10SM CLR 16/13 A3007 RMK AO2

More Conditions Fewer Conditions

10-Day Weather Forecast

Almanac

Astronomia

May. 28, 2015 Alba Tramonto
Ora attuale
Crepuscolo civile
Crepuscolo nautico
Crepuscolo astronomico
Luna
Estensione della luce visibile
Lunghezza del giorno
Tomorrow will be .
, % of the Moon is Illuminated

Gli estremi di oggi

State Highs State Lows

Community

WunderPhotos

Upload Photos

1,824,959 foto caricate!

WunderBlogs® & News

Nearby

Qualità dell'aria

  Qualità dell'aria Indice AQ Inquinante
Not available.

Profondità neve

Stazione Profondità Altitudine

Attività sismica

Città  Distanza Mag. Data & Ora
Minimo Magnitudo Mostrato è 2.5.

Temperature delle acque costiere

Località Temperatura

Stations

Stazioni meteo nelle vicinanze

Ubicazione della stazione Temp. Raffreddamento del vento Punto di rugiada Umidità Vento Precip. Alt. Aggiornato Tipo